Time;durP1;ratioP1;P1;durP2;ratioP2;P2;SDS_P1;SDS_P2;PMS_P1;PMS_P2;Temp;Humidity;BMP_temperature;BMP_pressure;BME280_temperature;BME280_humidity;BME280_pressure;Samples;Min_cycle;Max_cycle;Signal;HPM_P1;HPM_P2
2022/07/27 00:01:14;;;;;;;1.13;0.10;;;12.70;99.90;;;;;;5006735;28;20038;-79
2022/07/27 00:03:40;;;;;;;2.65;0.20;;;12.80;99.90;;;;;;4994209;28;20076;-78
2022/07/27 00:06:06;;;;;;;0.75;0.20;;;12.70;99.90;;;;;;4990461;28;20505;-79
2022/07/27 00:08:32;;;;;;;1.88;0.17;;;12.60;99.90;;;;;;5006244;28;20049;-78
2022/07/27 00:10:58;;;;;;;1.65;0.10;;;12.60;99.90;;;;;;4991440;28;20026;-78
2022/07/27 00:13:24;;;;;;;0.93;0.17;;;12.60;99.90;;;;;;4988078;28;20037;-79
2022/07/27 00:15:49;;;;;;;0.50;0.17;;;12.60;99.90;;;;;;5013581;28;20058;-79
2022/07/27 00:18:15;;;;;;;1.73;0.15;;;12.50;99.90;;;;;;4995892;28;20026;-79
2022/07/27 00:20:41;;;;;;;1.75;0.17;;;12.50;99.90;;;;;;5014522;28;20022;-78
2022/07/27 00:23:07;;;;;;;0.50;0.17;;;12.50;99.90;;;;;;5001676;28;20422;-79
2022/07/27 00:25:34;;;;;;;1.52;0.20;;;12.30;99.90;;;;;;5002068;28;20030;-79
2022/07/27 00:27:59;;;;;;;4.22;0.30;;;12.30;99.90;;;;;;5013608;28;20034;-78
2022/07/27 00:30:25;;;;;;;0.20;0.10;;;12.40;99.90;;;;;;4977501;28;20033;-78
2022/07/27 00:32:51;;;;;;;1.85;0.10;;;12.40;99.90;;;;;;5013633;28;20406;-78
2022/07/27 00:35:17;;;;;;;0.45;0.15;;;12.40;99.90;;;;;;5004057;28;20112;-78
2022/07/27 00:37:42;;;;;;;1.33;0.20;;;12.40;99.90;;;;;;5014422;28;20359;-78
2022/07/27 00:40:09;;;;;;;0.85;0.20;;;12.40;99.90;;;;;;5000481;28;20088;-78
2022/07/27 00:42:34;;;;;;;0.70;0.15;;;12.40;99.90;;;;;;5014951;28;20394;-78
2022/07/27 00:45:01;;;;;;;0.30;0.10;;;12.40;99.90;;;;;;5014668;28;20030;-78
2022/07/27 00:47:26;;;;;;;0.28;0.10;;;12.40;99.90;;;;;;5013598;28;20030;-79
2022/07/27 00:49:52;;;;;;;0.80;0.15;;;12.30;99.90;;;;;;4996074;28;20040;-78
2022/07/27 00:52:20;;;;;;;1.25;0.10;;;12.10;99.90;;;;;;4974981;28;20056;-78
2022/07/27 00:54:46;;;;;;;0.52;0.10;;;12.10;99.90;;;;;;5013386;28;20037;-79
2022/07/27 00:57:13;;;;;;;3.05;0.20;;;12.10;99.90;;;;;;4985848;28;20034;-80
2022/07/27 00:59:40;;;;;;;1.13;0.10;;;12.10;99.90;;;;;;4999517;28;20026;-78
2022/07/27 01:02:06;;;;;;;0.75;0.10;;;12.10;99.90;;;;;;5004112;28;20048;-79
2022/07/27 01:04:33;;;;;;;1.00;0.10;;;12.10;99.90;;;;;;4995820;28;20037;-79
2022/07/27 01:07:00;;;;;;;0.40;0.13;;;12.10;99.90;;;;;;5005250;28;20495;-80
2022/07/27 01:12:15;;;;;;;1.10;0.20;;;12.00;99.90;;;;;;5014039;28;20045;-79
2022/07/27 01:14:41;;;;;;;1.65;0.20;;;12.00;99.90;;;;;;4996091;28;20382;-79
2022/07/27 01:17:07;;;;;;;1.13;0.10;;;11.90;99.90;;;;;;5002197;28;20397;-80
2022/07/27 01:19:34;;;;;;;1.00;0.20;;;11.90;99.90;;;;;;4999872;28;20025;-79
2022/07/27 01:22:04;;;;;;;1.50;0.20;;;12.00;99.90;;;;;;4976258;28;20367;-78
2022/07/27 01:24:29;;;;;;;0.90;0.20;;;11.90;99.90;;;;;;5011427;28;20056;-78
2022/07/27 01:26:56;;;;;;;0.75;0.20;;;11.90;99.90;;;;;;4995973;28;20034;-78
2022/07/27 01:29:21;;;;;;;0.90;0.30;;;11.80;99.90;;;;;;5002300;28;20017;-79
2022/07/27 01:31:47;;;;;;;1.13;0.20;;;11.80;99.90;;;;;;4983374;28;20029;-79
2022/07/27 01:34:13;;;;;;;0.93;0.20;;;11.80;99.90;;;;;;4987769;28;20057;-78
2022/07/27 01:36:38;;;;;;;1.25;0.30;;;11.80;99.90;;;;;;5012689;28;20057;-79
2022/07/27 01:39:04;;;;;;;0.70;0.20;;;11.70;99.90;;;;;;5012219;28;20022;-80
2022/07/27 01:41:30;;;;;;;0.68;0.30;;;11.80;99.90;;;;;;4983799;28;20037;-79
2022/07/27 01:43:55;;;;;;;1.10;0.30;;;11.80;99.90;;;;;;4999149;28;20022;-79
2022/07/27 01:46:21;;;;;;;1.58;0.30;;;11.70;99.90;;;;;;5012793;28;20030;-79
2022/07/27 01:48:47;;;;;;;1.13;0.30;;;11.70;99.90;;;;;;5002239;28;20025;-79
2022/07/27 01:51:12;;;;;;;2.15;0.30;;;11.70;99.90;;;;;;5012471;28;20252;-80
2022/07/27 01:53:38;;;;;;;2.15;0.30;;;11.70;99.90;;;;;;5013014;28;20021;-79
2022/07/27 01:56:09;;;;;;;2.40;0.55;;;11.60;99.90;;;;;;5007077;28;20049;-79
2022/07/27 01:58:36;;;;;;;0.80;0.30;;;11.60;99.90;;;;;;4995856;28;20478;-81
2022/07/27 02:01:02;;;;;;;1.13;0.30;;;11.60;99.90;;;;;;4997819;28;20457;-80
2022/07/27 02:03:28;;;;;;;1.17;0.20;;;11.60;99.90;;;;;;4984840;28;20074;-80
2022/07/27 02:05:53;;;;;;;1.08;0.30;;;11.40;99.90;;;;;;5014130;28;20428;-79
2022/07/27 02:08:19;;;;;;;2.38;0.40;;;11.40;99.90;;;;;;5016629;28;20556;-78
2022/07/27 02:13:29;;;;;;;0.93;0.20;;;11.50;99.90;;;;;;5016294;28;20393;-80
2022/07/27 02:15:55;;;;;;;0.93;0.25;;;11.50;99.90;;;;;;5016183;28;20037;-80
2022/07/27 02:18:22;;;;;;;1.33;0.22;;;11.50;99.90;;;;;;4991576;28;20025;-79
2022/07/27 02:20:48;;;;;;;2.92;0.25;;;11.40;99.90;;;;;;4983893;28;20083;-78
2022/07/27 02:23:14;;;;;;;1.63;0.22;;;11.50;99.90;;;;;;5018550;28;20061;-78
2022/07/27 02:25:39;;;;;;;1.50;0.30;;;11.50;99.90;;;;;;5000776;28;20056;-80
2022/07/27 02:28:06;;;;;;;1.05;0.30;;;11.40;99.90;;;;;;4979790;28;20485;-79
2022/07/27 02:30:31;;;;;;;0.73;0.20;;;11.40;99.90;;;;;;4999898;28;20038;-78
2022/07/27 02:32:57;;;;;;;2.28;0.35;;;11.40;99.90;;;;;;4996801;28;20115;-79
2022/07/27 02:35:22;;;;;;;0.98;0.22;;;11.40;99.90;;;;;;5001122;28;20115;-79
2022/07/27 02:37:48;;;;;;;0.80;0.30;;;11.40;99.90;;;;;;5003149;28;20436;-78
2022/07/27 02:40:16;;;;;;;0.80;0.30;;;11.40;99.90;;;;;;4979529;28;20028;-79
2022/07/27 02:42:42;;;;;;;1.20;0.30;;;11.40;99.90;;;;;;5002997;28;20033;-78
2022/07/27 02:45:08;;;;;;;1.17;0.32;;;11.50;99.90;;;;;;5002210;28;20033;-78
2022/07/27 02:47:34;;;;;;;1.25;0.28;;;11.50;99.90;;;;;;4991442;28;20040;-79
2022/07/27 02:50:01;;;;;;;0.63;0.30;;;11.50;99.90;;;;;;5002414;28;20109;-79
2022/07/27 02:52:27;;;;;;;1.73;0.30;;;11.50;99.90;;;;;;5002361;28;20029;-78
2022/07/27 02:54:52;;;;;;;1.30;0.40;;;11.50;99.90;;;;;;4998609;28;20036;-78
2022/07/27 02:57:18;;;;;;;1.92;0.40;;;11.60;99.90;;;;;;5015754;28;20026;-79
2022/07/27 02:59:44;;;;;;;1.65;0.40;;;11.80;99.90;;;;;;4997232;28;20489;-80
2022/07/27 03:02:09;;;;;;;2.90;0.30;;;11.80;99.90;;;;;;5015056;28;20045;-79
2022/07/27 03:04:35;;;;;;;1.70;0.30;;;11.80;99.90;;;;;;4986226;28;20037;-78
2022/07/27 03:07:01;;;;;;;1.65;0.40;;;11.80;99.90;;;;;;5015723;28;20029;-79
2022/07/27 03:09:26;;;;;;;2.30;0.38;;;11.90;99.90;;;;;;4988055;28;20057;-78
2022/07/27 03:11:52;;;;;;;1.88;0.38;;;12.00;99.90;;;;;;4974214;28;20073;-78
2022/07/27 03:14:18;;;;;;;1.45;0.30;;;12.00;99.90;;;;;;5002162;28;20028;-79
2022/07/27 03:16:44;;;;;;;1.17;0.40;;;11.90;99.90;;;;;;4990644;28;20061;-79
2022/07/27 03:19:09;;;;;;;1.15;0.30;;;11.90;99.90;;;;;;4986684;28;20549;-79
2022/07/27 03:21:35;;;;;;;2.65;0.75;;;11.90;99.90;;;;;;4990022;28;20045;-78
2022/07/27 03:24:01;;;;;;;1.00;0.40;;;11.90;99.90;;;;;;5016058;28;20617;-80
2022/07/27 03:26:29;;;;;;;0.90;0.40;;;12.00;99.90;;;;;;4998293;28;20040;-80
2022/07/27 03:28:56;;;;;;;2.10;0.40;;;12.00;99.90;;;;;;5000710;28;20032;-78
2022/07/27 03:31:22;;;;;;;1.15;0.57;;;11.90;99.90;;;;;;5002040;28;20029;-78
2022/07/27 03:33:47;;;;;;;1.67;0.40;;;11.90;99.90;;;;;;5006221;28;20026;-79
2022/07/27 03:36:13;;;;;;;1.35;0.40;;;11.90;99.90;;;;;;5015315;28;20026;-79
2022/07/27 03:38:39;;;;;;;1.55;0.30;;;12.00;99.90;;;;;;5013879;28;20028;-79
2022/07/27 03:41:05;;;;;;;1.55;0.47;;;12.00;99.90;;;;;;4997296;28;20045;-79
2022/07/27 03:43:31;;;;;;;0.98;0.30;;;12.10;99.90;;;;;;5014875;28;20084;-79
2022/07/27 03:45:57;;;;;;;1.33;0.47;;;12.10;99.90;;;;;;5002327;28;20116;-79
2022/07/27 03:48:23;;;;;;;1.67;0.30;;;12.10;99.90;;;;;;4991161;28;20109;-80
2022/07/27 03:50:48;;;;;;;2.65;0.40;;;12.10;99.90;;;;;;5001799;28;20133;-79
2022/07/27 03:53:16;;;;;;;1.05;0.20;;;12.10;99.90;;;;;;4990181;28;20065;-79
2022/07/27 03:55:42;;;;;;;1.23;0.30;;;12.20;99.90;;;;;;5015372;28;20037;-79
2022/07/27 03:58:08;;;;;;;1.60;0.20;;;12.20;99.90;;;;;;4999892;28;20029;-79
2022/07/27 04:00:33;;;;;;;0.55;0.20;;;12.20;99.90;;;;;;4989611;28;20493;-81
2022/07/27 04:02:59;;;;;;;0.55;0.20;;;12.30;99.90;;;;;;4979593;28;20663;-79
2022/07/27 04:05:24;;;;;;;1.08;0.30;;;12.30;99.90;;;;;;4989064;28;20061;-79
2022/07/27 04:07:50;;;;;;;1.10;0.20;;;12.40;99.90;;;;;;5014988;28;20041;-79
2022/07/27 04:10:17;;;;;;;1.88;0.28;;;12.40;99.90;;;;;;4984716;28;20370;-80
2022/07/27 04:12:42;;;;;;;1.00;0.20;;;12.40;99.90;;;;;;4969937;28;20108;-79
2022/07/27 04:15:09;;;;;;;1.15;0.30;;;12.40;99.90;;;;;;4996876;28;20116;-79
2022/07/27 04:17:35;;;;;;;1.92;0.20;;;12.40;99.90;;;;;;4987559;28;20035;-79
2022/07/27 04:20:00;;;;;;;1.63;0.20;;;12.50;99.90;;;;;;5012443;28;20030;-79
2022/07/27 04:22:26;;;;;;;1.10;0.22;;;12.60;99.90;;;;;;4986457;28;20065;-78
2022/07/27 04:24:52;;;;;;;0.80;0.20;;;12.60;99.90;;;;;;4994243;28;20025;-78
2022/07/27 04:27:17;;;;;;;1.05;0.20;;;12.60;99.90;;;;;;4996865;28;20477;-80
2022/07/27 04:29:43;;;;;;;1.00;0.20;;;12.70;99.90;;;;;;5000294;28;20079;-79
2022/07/27 04:32:09;;;;;;;2.15;0.20;;;12.70;99.90;;;;;;5012486;28;20021;-79
2022/07/27 04:34:34;;;;;;;1.02;0.20;;;12.70;99.90;;;;;;4999860;28;20113;-79
2022/07/27 04:37:00;;;;;;;0.98;0.20;;;12.80;99.90;;;;;;5004224;28;20030;-80
2022/07/27 04:39:26;;;;;;;0.40;0.20;;;12.80;99.90;;;;;;5012856;28;20064;-79
2022/07/27 04:41:51;;;;;;;1.02;0.20;;;12.80;99.90;;;;;;5013589;28;20495;-80
2022/07/27 04:44:17;;;;;;;0.70;0.38;;;12.80;99.90;;;;;;4997120;28;20109;-80
2022/07/27 04:46:43;;;;;;;0.55;0.20;;;12.80;99.90;;;;;;4991610;28;20057;-79
2022/07/27 04:49:08;;;;;;;0.98;0.30;;;12.80;99.90;;;;;;4995085;28;20064;-81
2022/07/27 04:51:34;;;;;;;1.10;0.20;;;12.80;99.90;;;;;;4989376;28;20481;-81
2022/07/27 04:54:00;;;;;;;1.45;0.20;;;12.90;99.90;;;;;;4983980;28;20048;-80
2022/07/27 04:56:26;;;;;;;4.18;0.20;;;13.00;99.90;;;;;;5012149;28;20427;-80
2022/07/27 04:58:52;;;;;;;0.40;0.10;;;13.00;99.90;;;;;;4982695;28;20026;-80
2022/07/27 05:01:17;;;;;;;0.68;0.20;;;13.00;99.90;;;;;;4984569;28;20038;-80
2022/07/27 05:03:43;;;;;;;1.00;0.20;;;13.10;99.90;;;;;;4979324;28;20033;-80
2022/07/27 05:06:09;;;;;;;2.33;0.20;;;13.20;99.90;;;;;;4995558;28;20033;-80
2022/07/27 05:08:34;;;;;;;0.73;0.20;;;13.10;99.90;;;;;;5013442;28;20038;-80
2022/07/27 05:11:00;;;;;;;2.25;0.30;;;13.10;99.90;;;;;;4989267;28;20025;-81
2022/07/27 05:13:26;;;;;;;2.38;0.30;;;13.10;99.90;;;;;;4988038;28;20143;-79
2022/07/27 05:15:52;;;;;;;3.03;0.40;;;13.20;99.90;;;;;;4989381;28;20494;-80
2022/07/27 05:18:17;;;;;;;1.73;0.30;;;13.10;99.90;;;;;;5008724;28;20466;-79
2022/07/27 05:20:43;;;;;;;2.28;0.30;;;13.20;99.90;;;;;;4994418;28;20382;-79
2022/07/27 05:23:10;;;;;;;1.50;0.30;;;13.10;99.90;;;;;;5002050;28;20044;-81
2022/07/27 05:25:35;;;;;;;0.75;0.20;;;13.00;99.90;;;;;;4997303;28;20038;-81
2022/07/27 05:28:01;;;;;;;0.85;0.20;;;13.10;99.90;;;;;;4972599;28;20034;-82
2022/07/27 05:30:30;;;;;;;1.80;0.20;;;13.10;99.90;;;;;;4987220;28;20060;-78
2022/07/27 05:32:55;;;;;;;1.52;0.13;;;13.00;99.90;;;;;;4959109;28;20029;-80
2022/07/27 05:35:21;;;;;;;0.57;0.10;;;13.10;99.90;;;;;;5007481;28;20032;-78
2022/07/27 05:37:47;;;;;;;2.22;0.10;;;13.00;99.90;;;;;;5010374;28;20060;-82
2022/07/27 05:40:13;;;;;;;1.13;0.20;;;13.10;99.90;;;;;;4982159;28;20062;-79
2022/07/27 05:42:42;;;;;;;1.30;0.10;;;13.10;99.90;;;;;;5007640;28;20045;-78
2022/07/27 05:45:10;;;;;;;1.77;0.20;;;13.20;99.90;;;;;;5010206;28;20602;-80
2022/07/27 05:47:36;;;;;;;1.75;0.10;;;13.20;99.90;;;;;;5012692;28;20108;-81
2022/07/27 05:50:01;;;;;;;0.95;0.20;;;13.30;99.90;;;;;;4986644;28;20057;-79
2022/07/27 05:52:27;;;;;;;1.85;0.20;;;13.30;99.90;;;;;;4988471;28;20036;-80
2022/07/27 05:54:52;;;;;;;2.60;0.20;;;13.30;99.90;;;;;;4997784;28;20077;-79
2022/07/27 05:57:18;;;;;;;1.10;0.15;;;13.40;99.90;;;;;;5000917;28;20469;-80
2022/07/27 05:59:44;;;;;;;0.82;0.10;;;13.50;99.90;;;;;;5012393;28;20018;-79
2022/07/27 06:02:09;;;;;;;0.95;0.10;;;13.50;99.90;;;;;;5012136;28;20256;-82
2022/07/27 06:04:35;;;;;;;1.25;0.13;;;13.60;99.90;;;;;;5012181;28;20076;-82
2022/07/27 06:09:45;;;;;;;0.75;0.10;;;13.70;99.90;;;;;;4991186;28;20389;-80
2022/07/27 06:12:11;;;;;;;0.50;0.00;;;13.70;99.90;;;;;;5003652;28;20030;-83
2022/07/27 06:14:37;;;;;;;1.08;0.10;;;13.70;99.90;;;;;;5008666;28;20224;-82
2022/07/27 06:17:04;;;;;;;0.57;0.10;;;13.70;99.90;;;;;;4997215;28;20454;-79
2022/07/27 06:19:30;;;;;;;0.60;0.10;;;13.90;99.90;;;;;;4988621;28;20066;-80
2022/07/27 06:21:57;;;;;;;1.20;0.10;;;13.80;99.90;;;;;;5008743;28;20520;-80
2022/07/27 06:24:23;;;;;;;1.13;0.08;;;13.90;99.90;;;;;;4976047;28;20034;-80
2022/07/27 06:26:48;;;;;;;1.17;0.10;;;14.00;99.90;;;;;;4979071;28;20161;-81
2022/07/27 06:29:14;;;;;;;1.08;0.10;;;14.00;99.90;;;;;;4988396;28;20102;-84
2022/07/27 06:31:40;;;;;;;0.70;0.10;;;14.10;99.90;;;;;;5008145;28;20026;-80
2022/07/27 06:34:05;;;;;;;0.75;0.00;;;14.00;99.90;;;;;;5007527;28;20025;-83
2022/07/27 06:36:31;;;;;;;0.70;0.00;;;14.10;99.90;;;;;;5009163;28;20025;-81
2022/07/27 06:38:56;;;;;;;0.30;0.10;;;14.30;99.90;;;;;;4994945;28;20030;-84
2022/07/27 06:41:22;;;;;;;0.55;0.10;;;14.20;99.90;;;;;;5009990;28;20026;-80
2022/07/27 06:43:48;;;;;;;0.40;0.00;;;14.30;99.90;;;;;;4970898;28;20041;-82
2022/07/27 06:46:14;;;;;;;1.58;0.00;;;14.50;99.90;;;;;;5005285;28;20073;-82
2022/07/27 06:48:40;;;;;;;0.40;0.00;;;14.50;99.90;;;;;;4974006;28;20033;-80
2022/07/27 06:51:06;;;;;;;0.25;0.00;;;14.60;99.90;;;;;;5005840;28;20057;-81
2022/07/27 06:53:32;;;;;;;0.45;0.00;;;14.60;99.90;;;;;;5009546;28;20454;-81
2022/07/27 06:56:02;;;;;;;0.85;0.10;;;14.60;99.90;;;;;;5010458;28;20057;-83
2022/07/27 06:58:30;;;;;;;0.95;0.10;;;14.60;99.90;;;;;;4985578;28;20805;-82
2022/07/27 07:00:56;;;;;;;0.50;0.00;;;14.60;99.90;;;;;;5009820;28;20468;-82
2022/07/27 07:03:22;;;;;;;1.15;0.10;;;14.70;99.90;;;;;;4977783;28;20045;-81
2022/07/27 07:05:47;;;;;;;0.52;0.10;;;14.90;99.90;;;;;;5009958;28;20034;-78
2022/07/27 07:08:14;;;;;;;0.75;0.10;;;15.00;99.90;;;;;;4976945;28;20420;-80
2022/07/27 07:10:43;;;;;;;0.45;0.00;;;15.10;99.90;;;;;;5009526;28;20029;-87
2022/07/27 07:13:09;;;;;;;0.50;0.10;;;15.20;99.90;;;;;;5012133;28;20030;-79
2022/07/27 07:15:37;;;;;;;0.52;0.10;;;15.50;99.90;;;;;;5010784;28;20026;-81
2022/07/27 07:18:03;;;;;;;0.60;0.10;;;15.70;99.90;;;;;;5009593;28;20076;-79
2022/07/27 07:20:30;;;;;;;1.00;0.10;;;15.90;99.90;;;;;;5011465;28;20056;-84
2022/07/27 07:22:59;;;;;;;0.57;0.00;;;16.20;99.90;;;;;;5010167;28;20154;-84
2022/07/27 07:25:25;;;;;;;0.50;0.00;;;16.30;99.90;;;;;;4996358;28;20025;-86
2022/07/27 07:27:51;;;;;;;0.30;0.10;;;16.50;99.90;;;;;;4999119;28;20030;-84
2022/07/27 07:30:17;;;;;;;0.40;0.03;;;16.70;99.90;;;;;;4995706;28;20056;-86
2022/07/27 07:32:43;;;;;;;0.77;0.08;;;17.20;99.90;;;;;;5011687;28;20026;-84
2022/07/27 07:35:10;;;;;;;0.30;0.00;;;17.20;99.90;;;;;;5007769;28;20048;-80
2022/07/27 07:37:36;;;;;;;1.02;0.10;;;17.20;99.90;;;;;;5012852;28;20096;-81
2022/07/27 07:40:04;;;;;;;0.50;0.00;;;17.30;99.90;;;;;;5010587;28;20108;-82
2022/07/27 07:42:30;;;;;;;1.17;0.10;;;17.30;99.90;;;;;;4986189;28;20164;-81
2022/07/27 07:44:56;;;;;;;0.68;0.00;;;17.10;99.90;;;;;;4991168;28;20133;-86
2022/07/27 07:47:22;;;;;;;1.08;0.10;;;17.10;99.90;;;;;;5009418;28;20030;-87
2022/07/27 07:49:49;;;;;;;0.85;0.10;;;17.10;99.90;;;;;;4986197;28;20038;-85
2022/07/27 07:52:15;;;;;;;1.98;0.10;;;17.00;99.90;;;;;;5010315;28;20061;-83
2022/07/27 07:54:40;;;;;;;1.10;0.00;;;17.20;99.90;;;;;;4992140;28;20104;-82
2022/07/27 07:57:06;;;;;;;0.93;0.10;;;17.40;99.90;;;;;;4992155;28;20029;-83
2022/07/27 07:59:31;;;;;;;0.82;0.10;;;17.70;99.90;;;;;;5013264;28;20121;-85
2022/07/27 08:01:58;;;;;;;0.98;0.20;;;18.10;99.90;;;;;;4991796;28;20486;-83
2022/07/27 08:04:23;;;;;;;1.55;0.10;;;18.50;99.90;;;;;;4991710;28;20025;-85
2022/07/27 08:06:49;;;;;;;2.58;0.20;;;18.70;99.90;;;;;;4990108;28;20140;-82
2022/07/27 08:09:20;;;;;;;1.85;0.10;;;19.10;99.90;;;;;;5008287;28;20156;-86
2022/07/27 08:11:45;;;;;;;2.60;0.20;;;19.10;99.90;;;;;;4994117;28;20026;-82
2022/07/27 08:14:11;;;;;;;1.13;0.10;;;19.40;99.90;;;;;;4970435;28;21385;-86
2022/07/27 08:16:37;;;;;;;0.52;0.10;;;19.40;99.90;;;;;;5005797;28;20165;-82
2022/07/27 08:19:03;;;;;;;1.17;0.10;;;19.30;99.90;;;;;;4993467;28;20513;-81
2022/07/27 08:21:29;;;;;;;0.75;0.10;;;19.60;99.90;;;;;;5010575;28;20034;-87
2022/07/27 08:23:54;;;;;;;1.45;0.10;;;19.70;99.90;;;;;;4970176;28;20018;-81
2022/07/27 08:26:20;;;;;;;3.63;0.10;;;19.90;99.90;;;;;;5009079;28;20027;-83
2022/07/27 08:28:45;;;;;;;1.70;0.10;;;19.70;99.90;;;;;;5008870;28;20061;-85
2022/07/27 08:31:11;;;;;;;2.38;0.20;;;19.80;99.90;;;;;;4986502;28;20040;-85
2022/07/27 08:33:37;;;;;;;0.73;0.10;;;18.90;99.90;;;;;;5008215;28;20080;-82
2022/07/27 08:36:03;;;;;;;0.40;0.10;;;18.90;99.90;;;;;;4987639;28;20049;-87
2022/07/27 08:38:29;;;;;;;2.10;0.20;;;18.90;99.90;;;;;;4988500;28;20133;-81
2022/07/27 08:40:55;;;;;;;1.52;0.10;;;18.60;99.90;;;;;;4976937;28;20081;-86
2022/07/27 08:43:24;;;;;;;2.55;0.20;;;18.50;99.90;;;;;;4986853;28;20038;-84
2022/07/27 08:45:55;;;;;;;0.43;0.10;;;18.40;99.90;;;;;;4992558;28;20030;-81
2022/07/27 08:48:23;;;;;;;0.95;0.10;;;18.20;99.90;;;;;;5008573;28;20534;-83
2022/07/27 08:50:49;;;;;;;2.55;0.17;;;18.60;99.90;;;;;;4969565;28;20040;-86
2022/07/27 08:53:15;;;;;;;1.33;0.17;;;18.20;99.90;;;;;;4990877;28;20026;-84
2022/07/27 08:55:43;;;;;;;0.40;0.10;;;19.00;99.90;;;;;;5008117;28;20103;-86
2022/07/27 08:58:11;;;;;;;1.42;0.10;;;19.10;99.90;;;;;;4987064;28;20120;-80
2022/07/27 09:00:39;;;;;;;0.90;0.10;;;18.80;99.90;;;;;;4998028;28;20443;-83
2022/07/27 09:03:05;;;;;;;2.40;0.20;;;18.70;99.90;;;;;;4974326;28;20508;-83
2022/07/27 09:05:31;;;;;;;4.15;0.10;;;18.80;99.90;;;;;;4986139;28;20026;-80
2022/07/27 09:08:14;;;;;;;0.90;0.10;;;18.80;99.90;;;;;;4974034;28;20050;-84
2022/07/27 09:10:40;;;;;;;1.35;0.20;;;18.30;99.90;;;;;;5010334;28;20605;-87
2022/07/27 09:13:25;;;;;;;0.82;0.10;;;18.60;99.90;;;;;;4994386;28;20179;-84
2022/07/27 09:16:11;;;;;;;0.57;0.10;;;19.40;99.90;;;;;;5002203;28;20042;-80
2022/07/27 09:18:38;;;;;;;0.85;0.10;;;19.40;99.90;;;;;;4991550;28;20437;-90
2022/07/27 09:21:16;;;;;;;1.25;0.10;;;19.60;99.90;;;;;;4974168;28;20037;-85
2022/07/27 09:23:48;;;;;;;1.35;0.10;;;19.70;99.90;;;;;;4973938;28;20069;-85
2022/07/27 09:26:18;;;;;;;0.88;0.10;;;19.80;99.90;;;;;;4987596;28;20060;-84
2022/07/27 09:28:44;;;;;;;0.75;0.10;;;20.30;99.90;;;;;;4973228;28;20030;-88
2022/07/27 09:31:15;;;;;;;0.80;0.10;;;20.10;99.90;;;;;;4993437;28;20021;-89
2022/07/27 09:33:41;;;;;;;1.20;0.10;;;20.60;99.90;;;;;;4990481;28;20037;-83
2022/07/27 09:36:07;;;;;;;1.20;0.10;;;21.20;99.90;;;;;;4970069;28;20069;-91
2022/07/27 09:38:32;;;;;;;1.00;0.10;;;21.10;99.90;;;;;;4991936;28;20061;-88
2022/07/27 09:41:04;;;;;;;1.15;0.10;;;21.70;99.90;;;;;;5006798;28;20026;-85
2022/07/27 09:43:32;;;;;;;1.13;0.10;;;21.90;99.90;;;;;;4992249;28;20046;-90
2022/07/27 09:46:06;;;;;;;1.23;0.10;;;21.10;99.90;;;;;;4986074;28;20080;-90
2022/07/27 09:48:34;;;;;;;0.70;0.10;;;21.60;99.90;;;;;;4990772;28;20454;-90
2022/07/27 09:51:02;;;;;;;1.52;0.10;;;20.90;99.90;;;;;;5008519;28;20109;-85
2022/07/27 09:53:33;;;;;;;1.23;0.15;;;20.40;99.90;;;;;;4971442;28;20168;-90
2022/07/27 09:56:14;;;;;;;1.30;0.10;;;20.00;99.90;;;;;;4991492;28;20045;-90
2022/07/27 09:58:43;;;;;;;1.58;0.20;;;20.90;99.90;;;;;;5007713;28;20044;-89
2022/07/27 10:01:19;;;;;;;1.08;0.10;;;20.70;99.90;;;;;;5007670;28;20026;-82
2022/07/27 10:03:46;;;;;;;1.25;0.10;;;20.70;99.90;;;;;;4988400;28;20445;-86
2022/07/27 10:06:12;;;;;;;0.77;0.10;;;20.70;99.90;;;;;;4973081;28;20041;-83
2022/07/27 10:08:41;;;;;;;1.27;0.10;;;20.20;99.90;;;;;;4985300;28;20116;-86
2022/07/27 10:11:07;;;;;;;0.93;0.10;;;20.20;99.90;;;;;;4983345;28;20026;-88
2022/07/27 10:13:33;;;;;;;2.45;0.10;;;20.60;99.90;;;;;;4992203;28;20034;-89
2022/07/27 10:16:01;;;;;;;0.90;0.10;;;21.10;99.90;;;;;;4975390;28;20084;-82
2022/07/27 10:18:50;;;;;;;1.48;0.10;;;20.80;99.90;;;;;;4987162;28;20565;-85
2022/07/27 10:21:16;;;;;;;1.52;0.15;;;20.10;99.90;;;;;;5007899;28;20108;-88
2022/07/27 10:23:57;;;;;;;1.65;0.10;;;20.90;99.90;;;;;;4993263;28;20030;-83
2022/07/27 10:26:23;;;;;;;2.00;0.20;;;20.90;99.90;;;;;;4970944;28;20052;-90
2022/07/27 10:29:24;;;;;;;1.27;0.17;;;20.40;99.90;;;;;;5005984;28;20498;-87
2022/07/27 10:31:52;;;;;;;2.30;0.10;;;19.40;99.90;;;;;;4914986;29;20024;-90
2022/07/27 10:34:38;;;;;;;0.68;0.10;;;19.20;99.90;;;;;;4910327;29;20531;-83
2022/07/27 10:37:09;;;;;;;2.38;0.20;;;19.10;99.90;;;;;;4915321;29;20036;-86
2022/07/27 10:39:39;;;;;;;2.97;0.20;;;18.90;99.90;;;;;;4903413;29;20154;-90
2022/07/27 10:42:17;;;;;;;1.17;0.20;;;18.70;99.90;;;;;;4881012;29;20044;-89
2022/07/27 10:44:54;;;;;;;5.85;0.20;;;18.70;99.90;;;;;;4913943;29;20071;-89
2022/07/27 10:47:29;;;;;;;0.47;0.10;;;18.50;99.90;;;;;;4883766;29;20035;-92
2022/07/27 10:50:16;;;;;;;1.85;0.20;;;18.70;99.90;;;;;;4912645;29;20028;-90
2022/07/27 10:52:41;;;;;;;2.60;0.22;;;18.60;99.90;;;;;;4912880;29;20048;-87
2022/07/27 10:55:27;;;;;;;1.45;0.10;;;18.70;99.90;;;;;;4913481;29;20381;-91
2022/07/27 10:57:53;;;;;;;1.85;0.10;;;19.30;99.90;;;;;;4897550;29;20444;-82
2022/07/27 11:00:19;;;;;;;2.03;0.20;;;18.80;99.90;;;;;;4917191;29;20138;-85
2022/07/27 11:02:45;;;;;;;0.40;0.10;;;18.80;99.90;;;;;;4900008;29;20044;-86
2022/07/27 11:05:11;;;;;;;1.25;0.10;;;18.80;99.90;;;;;;4917437;28;20065;-88
2022/07/27 11:07:43;;;;;;;1.55;0.10;;;18.90;99.90;;;;;;4975491;28;20041;-90
2022/07/27 11:10:09;;;;;;;0.85;0.10;;;18.80;99.90;;;;;;4988686;28;20038;-85
2022/07/27 11:12:36;;;;;;;0.65;0.10;;;18.80;99.90;;;;;;4993862;28;20044;-84
2022/07/27 11:15:03;;;;;;;1.75;0.20;;;18.90;99.90;;;;;;4983921;28;20033;-89
2022/07/27 11:17:29;;;;;;;1.58;0.10;;;19.00;99.90;;;;;;4988749;28;20111;-83
2022/07/27 11:20:02;;;;;;;2.05;0.20;;;18.80;99.90;;;;;;4991008;28;20029;-87
2022/07/27 11:22:36;;;;;;;1.45;0.10;;;18.60;99.90;;;;;;4995955;28;20073;-90
2022/07/27 11:25:03;;;;;;;1.63;0.10;;;19.30;99.90;;;;;;4993416;28;20041;-82
2022/07/27 11:27:29;;;;;;;3.58;0.20;;;19.80;99.90;;;;;;5012314;28;20103;-90
2022/07/27 11:29:56;;;;;;;0.65;0.10;;;20.00;99.90;;;;;;5008076;28;20096;-90
2022/07/27 11:32:22;;;;;;;1.95;0.13;;;20.50;99.90;;;;;;4992468;28;20084;-84
2022/07/27 11:34:49;;;;;;;2.15;0.20;;;20.50;99.90;;;;;;5011950;28;20056;-86
2022/07/27 11:37:18;;;;;;;1.73;0.20;;;19.90;99.90;;;;;;4994496;28;20057;-89
2022/07/27 11:39:45;;;;;;;1.20;0.20;;;20.10;99.90;;;;;;4972131;28;20022;-84
2022/07/27 11:42:12;;;;;;;1.08;0.10;;;20.00;99.90;;;;;;4972494;28;20066;-92
2022/07/27 11:44:39;;;;;;;1.25;0.10;;;20.50;99.90;;;;;;4993883;28;20017;-85
2022/07/27 11:47:05;;;;;;;3.03;0.20;;;21.00;99.90;;;;;;4999043;28;20117;-95
2022/07/27 11:49:32;;;;;;;0.50;0.10;;;21.50;99.90;;;;;;4990899;28;20066;-96
2022/07/27 11:52:07;;;;;;;0.95;0.20;;;22.30;99.90;;;;;;4995765;28;20116;-90
2022/07/27 11:54:39;;;;;;;2.25;0.15;;;21.60;99.90;;;;;;5007604;28;20030;-87
2022/07/27 11:57:09;;;;;;;1.45;0.20;;;20.70;99.90;;;;;;5010369;28;20053;-90
2022/07/27 11:59:37;;;;;;;0.68;0.10;;;20.60;99.90;;;;;;4978937;28;20072;-85
2022/07/27 12:02:16;;;;;;;1.17;0.20;;;20.50;99.90;;;;;;5010224;28;20084;-88
2022/07/27 12:04:49;;;;;;;0.22;0.10;;;20.30;99.90;;;;;;4993785;28;20137;-90
2022/07/27 12:07:18;;;;;;;0.43;0.10;;;20.40;99.90;;;;;;4991460;28;20065;-92
2022/07/27 12:09:49;;;;;;;0.63;0.10;;;20.40;99.90;;;;;;4989461;28;20494;-93
2022/07/27 12:12:21;;;;;;;0.32;0.05;;;20.70;99.90;;;;;;5011339;28;20038;-90
2022/07/27 12:14:53;;;;;;;1.05;0.10;;;20.80;99.90;;;;;;5013195;28;20034;-90
2022/07/27 12:17:28;;;;;;;2.85;0.20;;;20.40;99.90;;;;;;4972668;28;20030;-90
2022/07/27 12:20:11;;;;;;;2.22;0.20;;;20.10;99.90;;;;;;4971078;28;20030;-87
2022/07/27 12:22:46;;;;;;;1.63;0.10;;;19.90;99.90;;;;;;5007076;28;20045;-88
2022/07/27 12:25:17;;;;;;;1.00;0.10;;;19.90;99.90;;;;;;4994814;28;20053;-88
2022/07/27 12:28:06;;;;;;;0.90;0.10;;;19.90;99.90;;;;;;4975262;28;20394;-88
2022/07/27 12:30:36;;;;;;;1.27;0.10;;;19.80;99.90;;;;;;5010625;28;20140;-81
2022/07/27 12:33:05;;;;;;;1.50;0.10;;;19.80;99.90;;;;;;4999822;28;20128;-86
2022/07/27 12:35:40;;;;;;;1.75;0.10;;;19.90;99.90;;;;;;5008202;28;20500;-87
2022/07/27 12:38:08;;;;;;;1.40;0.10;;;19.90;99.90;;;;;;4991400;28;20128;-89
2022/07/27 12:40:42;;;;;;;1.50;0.10;;;19.90;99.90;;;;;;5007495;28;20035;-85
2022/07/27 12:43:08;;;;;;;1.33;0.13;;;20.10;99.90;;;;;;5007298;28;20390;-86
2022/07/27 12:45:36;;;;;;;2.80;0.30;;;19.90;99.90;;;;;;4973549;28;20375;-82
2022/07/27 12:48:11;;;;;;;0.57;0.10;;;19.80;99.90;;;;;;4991359;28;20059;-86
2022/07/27 12:50:40;;;;;;;1.75;0.10;;;19.90;99.90;;;;;;5005318;28;20049;-86
2022/07/27 12:53:07;;;;;;;0.88;0.10;;;19.80;99.90;;;;;;5005522;28;20390;-85
2022/07/27 12:55:33;;;;;;;1.40;0.10;;;20.10;99.90;;;;;;5010575;28;20030;-82
2022/07/27 12:57:59;;;;;;;0.60;0.10;;;20.00;99.90;;;;;;4989933;28;20033;-83